LFSG

Details ICAO LFSG (EPL)
Name Epinal Mirecourt
Region France
Timezone Europe/Paris (UTC+1.0)
Plans Departing 13
Arriving 9
Stats Elevation 1,084 ft / 330 m (AMSL)
Location 48.325189° 6.069958°
Runways 1
Magnetic Variation 1.686° E
Sunrise 2017-12-15 07:21:39 UTC / 2017-12-15 08:21:39 Local
Sunset 2017-12-15 15:42:52 UTC / 2017-12-15 16:42:52 Local
Advertisement - Login to hide

Runways

ID Width Length Bearing (true) Bearing (mag) Surface Threshold Offset Overrun Length
09 147 ft / 45 m 8,835 ft / 2,693 m 85.05° 83.36° Concrete 0 ft / 0 m 1,662 ft / 507 m
27 147 ft / 45 m 8,835 ft / 2,693 m 265.08° 263.39° Concrete 846 ft / 258 m 0 ft / 0 m

Approach Navaids

Runway Type Ident Frequency Range Bearing (true) Bearing (mag) Slope Elevation
27 Localiser MI 110.90 MHz 18 nm / 33 km 265.05° 263.36° - 1,084 ft / 330 m (AMSL)
27 Glidescope MI 110.90 MHz 10 nm / 19 km 265.06° 263.38° 3.00° 1,084 ft / 330 m (AMSL)

Map

Weather


0- 5 10 15 20 25 30 35+ Temperature / ° C

Clouds and Precipitation
Forecast for 2017-12-15 12:00 UTC. Updated an hour ago

Ground ~20,000 ft ~40,000 ft Winds

METAR

LFSG 151230Z AUTO 20011KT 9999 BKN032 OVC038 05/01 Q0998

TAF

Not found

Frequencies

Tower 120.20 MHz AFIS EPINAL INFO
Approach 127.25 MHz LORRAINE APP
Warning: Do not use this data for real-world aviation or navigation. No guarantee of current accuracy is given.